createdAt,value
2018-10-17T00:01:05.969Z,95711.91
2018-10-17T00:03:34.914Z,95706.63
2018-10-17T00:06:04.040Z,95710.89
2018-10-17T00:08:32.901Z,95709.91
2018-10-17T00:11:02.701Z,95707.39
2018-10-17T00:13:31.503Z,95709.55
2018-10-17T00:16:00.430Z,95704.11
2018-10-17T00:18:29.499Z,95706.20
2018-10-17T00:20:58.608Z,95700.49
2018-10-17T00:23:27.564Z,95701.59
2018-10-17T00:25:56.426Z,95701.46
2018-10-17T00:28:25.262Z,95703.66
2018-10-17T00:30:54.335Z,95698.56
2018-10-17T00:33:23.919Z,95695.53
2018-10-17T00:35:52.823Z,95693.19
2018-10-17T00:38:21.940Z,95692.51
2018-10-17T00:40:50.871Z,95691.93
2018-10-17T00:43:19.833Z,95694.24
2018-10-17T00:45:48.692Z,95688.01
2018-10-17T00:48:17.615Z,95695.91
2018-10-17T00:50:46.514Z,95699.73
2018-10-17T00:53:15.555Z,95700.98
2018-10-17T00:55:44.408Z,95694.11
2018-10-17T00:58:13.336Z,95699.84
2018-10-17T01:00:42.294Z,95698.41
2018-10-17T01:03:11.266Z,95694.70
2018-10-17T01:05:40.093Z,95694.95
2018-10-17T01:08:09.032Z,95687.31
2018-10-17T01:10:37.957Z,95688.61
2018-10-17T01:13:06.990Z,95687.89
2018-10-17T01:15:35.936Z,95682.49
2018-10-17T01:18:04.977Z,95684.67
2018-10-17T01:20:33.793Z,95685.80
2018-10-17T01:23:03.211Z,95687.20
2018-10-17T01:25:32.240Z,95688.08
2018-10-17T01:28:02.038Z,95681.80
2018-10-17T01:30:30.941Z,95680.56
2018-10-17T01:32:59.886Z,95676.53
2018-10-17T01:35:28.972Z,95679.23
2018-10-17T01:37:57.849Z,95681.79
2018-10-17T01:40:26.892Z,95683.22
2018-10-17T01:42:55.907Z,95682.25
2018-10-17T01:45:24.764Z,95681.00
2018-10-17T01:47:53.682Z,95674.59
2018-10-17T01:50:22.614Z,95677.96
2018-10-17T01:52:51.485Z,95669.91
2018-10-17T01:55:20.494Z,95668.53
2018-10-17T01:57:49.435Z,95668.02
2018-10-17T02:00:18.696Z,95661.61
2018-10-17T02:02:47.662Z,95667.92
2018-10-17T02:05:16.652Z,95664.91
2018-10-17T02:07:45.601Z,95669.84
2018-10-17T02:10:15.256Z,95666.77
2018-10-17T02:12:44.072Z,95667.56
2018-10-17T02:15:13.022Z,95669.06
2018-10-17T02:17:41.997Z,95668.33
2018-10-17T02:20:11.662Z,95663.63
2018-10-17T02:22:40.536Z,95667.14
2018-10-17T02:25:09.459Z,95665.00
2018-10-17T02:27:38.396Z,95666.45
2018-10-17T02:30:07.622Z,95665.96
2018-10-17T02:32:36.547Z,95667.95
2018-10-17T02:35:11.165Z,95662.40
2018-10-17T02:37:40.194Z,95663.99
2018-10-17T02:40:09.263Z,95661.83
2018-10-17T02:42:38.341Z,95667.15
2018-10-17T02:45:08.361Z,95659.02
2018-10-17T02:47:37.434Z,95666.11
2018-10-17T02:50:09.407Z,95669.34
2018-10-17T02:52:41.459Z,95667.68
2018-10-17T02:55:10.527Z,95669.05
2018-10-17T02:57:39.786Z,95665.75
2018-10-17T03:00:09.620Z,95667.83
2018-10-17T03:02:38.636Z,95670.30
2018-10-17T03:05:07.765Z,95669.20
2018-10-17T03:07:36.594Z,95670.15
2018-10-17T03:10:05.624Z,95670.86
2018-10-17T03:12:34.654Z,95667.56
2018-10-17T03:15:03.750Z,95673.11
2018-10-17T03:17:32.617Z,95670.02
2018-10-17T03:20:01.439Z,95670.50
2018-10-17T03:22:30.321Z,95667.83
2018-10-17T03:24:59.322Z,95667.41
2018-10-17T03:27:28.337Z,95673.61
2018-10-17T03:29:57.250Z,95673.27
2018-10-17T03:32:26.137Z,95668.50
2018-10-17T03:34:55.323Z,95676.41
2018-10-17T03:37:24.103Z,95674.13
2018-10-17T03:39:53.145Z,95679.78
2018-10-17T03:42:22.038Z,95675.39
2018-10-17T03:44:51.867Z,95673.53
2018-10-17T03:47:20.933Z,95680.47
2018-10-17T03:49:50.089Z,95678.34
2018-10-17T03:52:18.957Z,95683.56
2018-10-17T03:54:47.851Z,95679.36
2018-10-17T03:57:16.716Z,95680.05
2018-10-17T03:59:45.758Z,95677.55
2018-10-17T04:02:14.729Z,95680.73
2018-10-17T04:04:43.169Z,95677.36
2018-10-17T04:07:11.622Z,95681.70
2018-10-17T04:09:40.215Z,95685.00
2018-10-17T04:12:08.594Z,95680.52
2018-10-17T04:14:37.026Z,95678.75
2018-10-17T04:17:05.520Z,95670.36
2018-10-17T04:19:33.982Z,95672.03
2018-10-17T04:22:02.403Z,95670.58
2018-10-17T04:24:30.798Z,95662.83
2018-10-17T04:26:59.253Z,95665.08
2018-10-17T04:29:27.666Z,95667.95
2018-10-17T04:31:56.084Z,95671.11
2018-10-17T04:34:24.467Z,95667.41
2018-10-17T04:36:52.930Z,95666.72
2018-10-17T04:39:21.297Z,95675.11
2018-10-17T04:41:49.742Z,95672.83
2018-10-17T04:44:18.141Z,95675.44
2018-10-17T04:46:46.580Z,95669.34
2018-10-17T04:49:15.026Z,95666.77
2018-10-17T04:51:43.431Z,95671.19
2018-10-17T04:54:11.813Z,95673.74
2018-10-17T04:56:40.242Z,95676.62
2018-10-17T04:59:08.723Z,95676.68
2018-10-17T05:01:39.824Z,95671.52
2018-10-17T05:04:08.226Z,95676.81
2018-10-17T05:06:36.743Z,95675.58
2018-10-17T05:09:08.858Z,95675.84
2018-10-17T05:11:37.346Z,95675.37
2018-10-17T05:14:06.390Z,95672.35
2018-10-17T05:16:35.070Z,95674.30
2018-10-17T05:19:03.644Z,95675.38
2018-10-17T05:21:32.026Z,95675.88
2018-10-17T05:24:00.461Z,95682.03
2018-10-17T05:26:28.884Z,95684.70
2018-10-17T05:28:57.675Z,95683.58
2018-10-17T05:31:26.122Z,95687.17
2018-10-17T05:33:54.557Z,95687.25
2018-10-17T05:36:22.969Z,95683.88
2018-10-17T05:38:51.401Z,95687.64
2018-10-17T05:41:19.846Z,95693.52
2018-10-17T05:43:49.495Z,95693.14
2018-10-17T05:46:18.094Z,95692.30
2018-10-17T05:48:46.545Z,95701.92
2018-10-17T05:51:15.037Z,95700.94
2018-10-17T05:53:43.492Z,95706.42
2018-10-17T05:56:11.897Z,95704.14
2018-10-17T05:58:40.342Z,95706.91
2018-10-17T06:01:08.799Z,95711.34
2018-10-17T06:03:37.210Z,95707.26
2018-10-17T06:06:05.802Z,95713.39
2018-10-17T06:08:34.240Z,95710.55
2018-10-17T06:11:02.720Z,95715.73
2018-10-17T06:13:31.117Z,95721.15
2018-10-17T06:15:59.566Z,95726.14
2018-10-17T06:18:27.966Z,95722.63
2018-10-17T06:20:56.401Z,95728.12
2018-10-17T06:23:24.805Z,95730.05
2018-10-17T06:25:53.256Z,95735.07
2018-10-17T06:28:21.717Z,95729.33
2018-10-17T06:30:50.154Z,95728.02
2018-10-17T06:33:18.547Z,95734.84
2018-10-17T06:35:47.069Z,95731.21
2018-10-17T06:38:15.498Z,95727.19
2018-10-17T06:40:44.045Z,95725.56
2018-10-17T06:43:12.515Z,95729.41
2018-10-17T06:45:41.011Z,95729.34
2018-10-17T06:48:09.442Z,95724.63
2018-10-17T06:50:38.386Z,95728.88
2018-10-17T06:53:06.958Z,95725.91
2018-10-17T06:55:35.326Z,95724.69
2018-10-17T06:58:06.397Z,95729.00
2018-10-17T07:00:34.916Z,95720.75
2018-10-17T07:03:03.505Z,95728.46
2018-10-17T07:05:31.942Z,95726.73
2018-10-17T07:08:00.369Z,95720.75
2018-10-17T07:10:28.870Z,95720.91
2018-10-17T07:12:57.453Z,95725.15
2018-10-17T07:15:25.939Z,95721.18
2018-10-17T07:17:54.277Z,95728.55
2018-10-17T07:20:22.681Z,95730.13
2018-10-17T07:22:51.174Z,95727.37
2018-10-17T07:25:19.559Z,95727.37
2018-10-17T07:27:48.039Z,95723.66
2018-10-17T07:30:16.448Z,95730.30
2018-10-17T07:32:44.878Z,95732.39
2018-10-17T07:35:13.285Z,95732.66
2018-10-17T07:37:41.766Z,95733.00
2018-10-17T07:40:10.385Z,95730.80
2018-10-17T07:42:39.723Z,95728.44
2018-10-17T07:45:08.421Z,95733.55
2018-10-17T07:47:36.897Z,95732.95
2018-10-17T07:50:05.571Z,95740.07
2018-10-17T07:52:34.015Z,95746.49
2018-10-17T07:55:02.941Z,95745.66
2018-10-17T07:57:31.406Z,95746.66
2018-10-17T07:59:59.856Z,95750.11
2018-10-17T08:02:28.270Z,95747.06
2018-10-17T08:04:56.710Z,95745.00
2018-10-17T08:07:27.177Z,95738.78
2018-10-17T08:09:55.613Z,95745.77
2018-10-17T08:12:24.025Z,95739.15
2018-10-17T08:14:52.462Z,95736.86
2018-10-17T08:17:20.864Z,95735.58
2018-10-17T08:19:49.301Z,95731.77
2018-10-17T08:22:17.702Z,95729.16
2018-10-17T08:24:46.274Z,95730.47
2018-10-17T08:27:14.761Z,95728.00
2018-10-17T08:29:43.177Z,95726.33
2018-10-17T08:32:11.601Z,95732.36
2018-10-17T08:34:40.058Z,95725.09
2018-10-17T08:37:08.911Z,95728.59
2018-10-17T08:39:37.005Z,95723.91
2018-10-17T08:42:06.122Z,95726.27
2018-10-17T08:44:34.574Z,95722.87
2018-10-17T08:47:03.621Z,95721.94
2018-10-17T08:49:32.073Z,95722.79
2018-10-17T08:52:00.489Z,95726.62
2018-10-17T08:54:28.949Z,95724.70
2018-10-17T08:56:57.377Z,95724.75
2018-10-17T08:59:26.002Z,95716.39
2018-10-17T09:01:54.489Z,95720.53
2018-10-17T09:04:22.838Z,95722.03
2018-10-17T09:06:51.296Z,95716.98
2018-10-17T09:09:19.725Z,95717.81
2018-10-17T09:11:48.179Z,95717.16
2018-10-17T09:14:16.707Z,95714.03
2018-10-17T09:16:45.193Z,95717.55
2018-10-17T09:19:13.540Z,95712.09
2018-10-17T09:21:42.162Z,95711.11
2018-10-17T09:24:10.572Z,95717.34
2018-10-17T09:26:38.920Z,95717.66
2018-10-17T09:29:07.349Z,95711.89
2018-10-17T09:31:35.772Z,95709.73
2018-10-17T09:34:04.439Z,95712.36
2018-10-17T09:36:32.845Z,95712.67
2018-10-17T09:39:01.970Z,95707.86
2018-10-17T09:41:30.822Z,95701.25
2018-10-17T09:44:02.631Z,95708.22
2018-10-17T09:46:31.937Z,95702.91
2018-10-17T09:49:00.407Z,95699.08
2018-10-17T09:51:28.976Z,95700.41
2018-10-17T09:53:57.416Z,95705.31
2018-10-17T09:56:25.830Z,95687.34
2018-10-17T09:58:54.617Z,95686.98
2018-10-17T10:01:28.112Z,95691.28
2018-10-17T10:03:56.619Z,95688.59
2018-10-17T10:06:25.022Z,95689.11
2018-10-17T10:08:53.473Z,95685.94
2018-10-17T10:11:21.888Z,95686.73
2018-10-17T10:13:50.350Z,95681.43
2018-10-17T10:16:18.815Z,95679.75
2018-10-17T10:18:47.299Z,95680.39
2018-10-17T10:21:15.705Z,95683.17
2018-10-17T10:23:44.188Z,95677.69
2018-10-17T10:26:12.577Z,95682.62
2018-10-17T10:28:41.127Z,95674.25
2018-10-17T10:31:10.062Z,95674.74
2018-10-17T10:33:38.541Z,95672.91
2018-10-17T10:36:07.085Z,95672.78
2018-10-17T10:38:35.467Z,95668.80
2018-10-17T10:41:03.917Z,95665.73
2018-10-17T10:43:32.330Z,95662.42
2018-10-17T10:46:00.754Z,95664.19
2018-10-17T10:48:29.404Z,95659.68
2018-10-17T10:50:57.854Z,95654.55
2018-10-17T10:53:26.273Z,95649.84
2018-10-17T10:55:54.936Z,95646.10
2018-10-17T10:58:23.507Z,95645.80
2018-10-17T11:00:51.853Z,95641.02
2018-10-17T11:03:20.237Z,95645.45
2018-10-17T11:05:48.914Z,95636.87
2018-10-17T11:08:17.196Z,95636.19
2018-10-17T11:10:45.577Z,95631.71
2018-10-17T11:13:14.010Z,95626.28
2018-10-17T11:15:42.506Z,95627.75
2018-10-17T11:18:10.918Z,95623.27
2018-10-17T11:20:39.374Z,95623.16
2018-10-17T11:23:07.842Z,95620.63
2018-10-17T11:25:36.270Z,95621.94
2018-10-17T11:28:04.946Z,95620.30
2018-10-17T11:30:33.422Z,95621.84
2018-10-17T11:33:02.046Z,95617.55
2018-10-17T11:35:30.498Z,95616.86
2018-10-17T11:37:59.108Z,95612.27
2018-10-17T11:40:27.556Z,95608.46
2018-10-17T11:42:56.047Z,95607.97
2018-10-17T11:45:24.459Z,95611.63
2018-10-17T11:47:56.518Z,95603.71
2018-10-17T11:50:24.956Z,95601.72
2018-10-17T11:52:53.499Z,95598.29
2018-10-17T11:55:21.914Z,95597.98
2018-10-17T11:57:50.366Z,95595.01
2018-10-17T12:00:18.778Z,95596.97
2018-10-17T12:02:47.222Z,95594.67
2018-10-17T12:05:16.478Z,95595.80
2018-10-17T12:07:45.025Z,95592.30
2018-10-17T12:10:13.435Z,95586.72
2018-10-17T12:12:41.889Z,95587.70
2018-10-17T12:15:14.234Z,95590.83
2018-10-17T12:17:42.737Z,95593.80
2018-10-17T12:20:12.867Z,95589.52
2018-10-17T12:22:42.070Z,95589.20
2018-10-17T12:25:11.193Z,95589.20
2018-10-17T12:27:39.684Z,95582.27
2018-10-17T12:30:09.948Z,95583.25
2018-10-17T12:32:38.322Z,95582.39
2018-10-17T12:35:06.930Z,95582.08
2018-10-17T12:37:36.191Z,95579.26
2018-10-17T12:40:05.307Z,95577.45
2018-10-17T12:42:33.730Z,95573.83
2018-10-17T12:45:02.194Z,95570.36
2018-10-17T12:47:30.582Z,95565.87
2018-10-17T12:49:59.044Z,95573.59
2018-10-17T12:52:27.416Z,95572.28
2018-10-17T12:54:55.860Z,95568.80
2018-10-17T12:57:24.271Z,95562.21
2018-10-17T12:59:52.718Z,95567.33
2018-10-17T13:02:21.130Z,95569.82
2018-10-17T13:04:49.566Z,95568.65
2018-10-17T13:07:18.383Z,95575.66
2018-10-17T13:09:47.571Z,95573.31
2018-10-17T13:12:15.986Z,95564.36
2018-10-17T13:14:44.445Z,95565.09
2018-10-17T13:17:13.004Z,95567.01
2018-10-17T13:19:41.378Z,95557.33
2018-10-17T13:22:09.773Z,95552.22
2018-10-17T13:24:38.227Z,95553.09
2018-10-17T13:27:06.679Z,95550.84
2018-10-17T13:29:35.141Z,95551.86
2018-10-17T13:32:03.595Z,95550.59
2018-10-17T13:34:33.245Z,95550.28
2018-10-17T13:37:01.920Z,95548.17
2018-10-17T13:39:31.086Z,95546.80
2018-10-17T13:41:59.543Z,95550.53
2018-10-17T13:47:15.732Z,95542.16
2018-10-17T13:49:44.204Z,95544.39
2018-10-17T13:52:12.637Z,95543.23
2018-10-17T13:54:41.090Z,95546.02
2018-10-17T13:57:09.510Z,95540.94
2018-10-17T13:59:38.019Z,95537.94
2018-10-17T14:02:06.473Z,95536.77
2018-10-17T14:04:34.882Z,95540.03
2018-10-17T14:07:03.563Z,95540.97
2018-10-17T14:09:32.046Z,95539.19
2018-10-17T14:12:00.617Z,95541.85
2018-10-17T14:14:29.026Z,95533.58
2018-10-17T14:16:57.486Z,95534.09
2018-10-17T14:19:25.927Z,95532.40
2018-10-17T14:21:54.434Z,95535.48
2018-10-17T14:24:22.950Z,95536.10
2018-10-17T14:26:51.436Z,95531.70
2018-10-17T14:29:20.014Z,95524.34
2018-10-17T14:31:48.443Z,95531.25
2018-10-17T14:34:16.922Z,95529.37
2018-10-17T14:36:45.411Z,95521.39
2018-10-17T14:39:13.948Z,95525.13
2018-10-17T14:41:42.550Z,95524.34
2018-10-17T14:44:11.042Z,95527.66
2018-10-17T14:46:39.503Z,95519.05
2018-10-17T14:49:08.101Z,95517.02
2018-10-17T14:51:36.650Z,95528.19
2018-10-17T14:54:05.198Z,95516.94
2018-10-17T14:56:33.602Z,95518.80
2018-10-17T14:59:02.237Z,95519.33
2018-10-17T15:01:30.985Z,95513.76
2018-10-17T15:03:59.512Z,95517.25
2018-10-17T15:06:28.050Z,95519.50
2018-10-17T15:08:56.654Z,95522.48
2018-10-17T15:11:25.276Z,95525.48
2018-10-17T15:13:53.802Z,95521.33
2018-10-17T15:16:22.374Z,95530.22
2018-10-17T15:18:50.861Z,95526.45
2018-10-17T15:21:19.481Z,95527.87
2018-10-17T15:23:48.018Z,95517.28
2018-10-17T15:26:16.433Z,95528.01
2018-10-17T15:28:44.869Z,95523.84
2018-10-17T15:31:13.300Z,95518.44
2018-10-17T15:33:41.826Z,95527.41
2018-10-17T15:36:10.336Z,95528.84
2018-10-17T15:38:38.809Z,95528.66
2018-10-17T15:41:07.442Z,95522.71
2018-10-17T15:43:35.916Z,95532.26
2018-10-17T15:46:05.367Z,95531.65
2018-10-17T15:48:33.849Z,95529.36
2018-10-17T15:51:03.600Z,95529.09
2018-10-17T15:53:32.211Z,95535.09
2018-10-17T15:56:00.655Z,95532.47
2018-10-17T15:58:29.159Z,95532.30
2018-10-17T16:00:58.106Z,95533.28
2018-10-17T16:03:26.569Z,95530.27
2018-10-17T16:05:55.574Z,95534.93
2018-10-17T16:08:24.183Z,95536.46
2018-10-17T16:10:52.742Z,95536.71
2018-10-17T16:13:21.333Z,95535.72
2018-10-17T16:15:49.813Z,95535.14
2018-10-17T16:18:18.347Z,95535.37
2018-10-17T16:20:46.730Z,95543.02
2018-10-17T16:23:15.264Z,95540.61
2018-10-17T16:25:43.690Z,95546.78
2018-10-17T16:28:12.092Z,95557.55
2018-10-17T16:30:40.925Z,95548.72
2018-10-17T16:33:09.318Z,95563.41
2018-10-17T16:35:37.766Z,95552.86
2018-10-17T16:38:06.435Z,95559.69
2018-10-17T16:40:34.922Z,95558.52
2018-10-17T16:43:03.621Z,95566.27
2018-10-17T16:45:32.325Z,95559.38
2018-10-17T16:48:00.997Z,95563.99
2018-10-17T16:50:29.527Z,95560.23
2018-10-17T16:52:57.972Z,95562.23
2018-10-17T16:55:26.631Z,95568.34
2018-10-17T16:57:55.994Z,95561.99
2018-10-17T17:00:24.426Z,95565.47
2018-10-17T17:02:52.944Z,95568.14
2018-10-17T17:05:21.434Z,95565.52
2018-10-17T17:07:49.918Z,95567.48
2018-10-17T17:10:18.394Z,95566.03
2018-10-17T17:12:46.965Z,95569.51
2018-10-17T17:15:15.531Z,95567.20
2018-10-17T17:17:45.969Z,95568.53
2018-10-17T17:33:52.998Z,95583.84
2018-10-17T17:36:21.634Z,95578.71
2018-10-17T17:38:50.166Z,95586.27
2018-10-17T17:41:18.858Z,95581.70
2018-10-17T17:46:50.920Z,95584.65
2018-10-17T17:49:19.375Z,95584.65
2018-10-17T17:51:48.254Z,95588.45
2018-10-17T17:54:16.712Z,95583.52
2018-10-17T18:39:59.438Z,95596.00
2018-10-17T18:42:31.922Z,95599.25
2018-10-17T18:45:00.416Z,95603.19
2018-10-17T18:47:29.970Z,95609.45
2018-10-17T18:50:01.403Z,95605.50
2018-10-17T18:52:30.174Z,95610.59
2018-10-17T18:54:59.087Z,95604.95
2018-10-17T18:57:27.630Z,95604.95
2018-10-17T18:59:56.054Z,95614.92
2018-10-17T19:05:45.555Z,95611.98
2018-10-17T19:08:14.376Z,95613.48
2018-10-17T19:10:43.090Z,95612.00
2018-10-17T19:13:11.966Z,95612.64
2018-10-17T19:15:40.780Z,95622.14
2018-10-17T19:21:03.108Z,95627.54
2018-10-17T19:23:31.982Z,95630.12
2018-10-17T19:26:01.007Z,95625.39
2018-10-17T19:28:30.220Z,95622.12
2018-10-17T19:30:58.761Z,95625.10
2018-10-17T19:33:27.579Z,95628.98
2018-10-17T19:36:02.868Z,95627.01
2018-10-17T19:38:31.462Z,95625.05
2018-10-17T19:41:00.191Z,95636.68
2018-10-17T19:43:29.142Z,95641.91
2018-10-17T19:45:57.862Z,95639.28
2018-10-17T19:48:26.559Z,95637.69
2018-10-17T19:50:55.310Z,95638.17
2018-10-17T20:02:08.986Z,95646.22
2018-10-17T20:04:38.287Z,95647.40
2018-10-17T20:07:07.396Z,95653.43
2018-10-17T20:09:36.364Z,95641.60
2018-10-17T20:12:05.971Z,95644.88
2018-10-17T20:14:49.893Z,95642.62
2018-10-17T20:17:20.174Z,95643.88
2018-10-17T20:19:58.636Z,95638.61
2018-10-17T20:22:29.146Z,95632.70
2018-10-17T20:25:18.769Z,95640.39
2018-10-17T20:27:51.385Z,95634.68
2018-10-17T20:34:21.991Z,95634.30
2018-10-17T20:36:52.600Z,95637.94
2018-10-17T20:39:21.855Z,95641.70
2018-10-17T20:41:51.044Z,95638.28
2018-10-17T20:44:20.080Z,95643.48
2018-10-17T20:46:49.021Z,95638.23
2018-10-17T20:49:17.912Z,95647.41
2018-10-17T20:51:46.774Z,95646.27
2018-10-17T20:54:15.680Z,95637.49
2018-10-17T20:56:47.312Z,95640.92
2018-10-17T20:59:26.191Z,95643.18
2018-10-17T21:01:55.683Z,95643.80
2018-10-17T21:04:24.097Z,95641.17
2018-10-17T21:06:52.537Z,95647.24
2018-10-17T21:09:20.947Z,95644.30
2018-10-17T21:11:49.418Z,95640.64
2018-10-17T21:14:17.839Z,95636.66
2018-10-17T21:16:46.305Z,95637.09
2018-10-17T21:19:14.731Z,95641.31
2018-10-17T21:21:43.193Z,95638.88
2018-10-17T21:24:11.634Z,95633.83
2018-10-17T21:26:40.154Z,95639.84
2018-10-17T21:29:08.544Z,95640.45
2018-10-17T21:31:36.990Z,95640.94
2018-10-17T21:34:05.436Z,95645.99
2018-10-17T21:36:33.849Z,95641.17
2018-10-17T21:39:02.402Z,95635.64
2018-10-17T21:41:30.842Z,95635.26
2018-10-17T21:43:59.343Z,95628.36
2018-10-17T21:46:27.813Z,95631.48
2018-10-17T21:48:56.237Z,95628.36
2018-10-17T21:51:24.640Z,95632.77
2018-10-17T21:53:53.088Z,95633.73
2018-10-17T21:56:21.485Z,95636.32
2018-10-17T21:58:49.917Z,95630.89
2018-10-17T22:01:18.358Z,95627.77
2018-10-17T22:03:46.800Z,95629.80
2018-10-17T22:06:15.201Z,95628.97
2018-10-17T22:08:43.671Z,95628.02
2018-10-17T22:11:12.062Z,95629.06
2018-10-17T22:13:40.485Z,95631.02
2018-10-17T22:16:08.898Z,95631.69
2018-10-17T22:18:37.358Z,95632.84
2018-10-17T22:21:05.915Z,95640.48
2018-10-17T22:23:34.398Z,95644.21
2018-10-17T22:26:02.886Z,95644.21
2018-10-17T22:28:31.273Z,95646.16
2018-10-17T22:30:59.722Z,95645.26
2018-10-17T22:33:28.125Z,95640.59
2018-10-17T22:35:56.566Z,95647.14
2018-10-17T22:38:24.961Z,95646.50
2018-10-17T22:40:53.377Z,95644.77
2018-10-17T22:43:21.802Z,95641.80
2018-10-17T22:45:50.278Z,95648.22
2018-10-17T22:48:18.790Z,95648.18
2018-10-17T22:50:47.225Z,95650.00
2018-10-17T22:53:15.631Z,95652.87
2018-10-17T22:55:44.065Z,95645.02
2018-10-17T22:58:12.457Z,95646.52
2018-10-17T23:00:41.813Z,95644.06
2018-10-17T23:03:10.232Z,95644.50
2018-10-17T23:05:38.685Z,95644.45
2018-10-17T23:08:07.153Z,95643.44
2018-10-17T23:10:35.531Z,95647.99
2018-10-17T23:13:04.129Z,95646.45
2018-10-17T23:15:32.570Z,95643.28
2018-10-17T23:18:00.978Z,95652.95
2018-10-17T23:20:29.421Z,95650.85
2018-10-17T23:22:57.814Z,95647.40
2018-10-17T23:25:26.201Z,95656.67
2018-10-17T23:27:54.626Z,95650.41
2018-10-17T23:30:23.026Z,95654.77
2018-10-17T23:32:51.462Z,95648.11
2018-10-17T23:35:19.863Z,95644.98
2018-10-17T23:37:48.278Z,95644.81
2018-10-17T23:40:16.694Z,95648.86
2018-10-17T23:42:45.193Z,95649.22
2018-10-17T23:45:13.585Z,95650.13
2018-10-17T23:47:42.009Z,95645.37
2018-10-17T23:50:10.470Z,95654.83
2018-10-17T23:52:38.846Z,95646.55
2018-10-17T23:55:07.769Z,95645.84
2018-10-17T23:57:36.225Z,95644.49
